createdAt,value
2023-01-30T00:02:22.274Z,5.80
2023-01-30T00:05:09.059Z,8.00
2023-01-30T00:07:55.494Z,6.63
2023-01-30T00:10:41.508Z,8.85
2023-01-30T00:13:28.330Z,5.82
2023-01-30T00:16:14.945Z,3.40
2023-01-30T00:19:01.811Z,5.57
2023-01-30T00:21:47.993Z,4.30
2023-01-30T00:24:34.741Z,5.28
2023-01-30T00:27:21.106Z,3.63
2023-01-30T00:30:07.666Z,3.35
2023-01-30T00:32:57.819Z,5.32
2023-01-30T00:35:46.091Z,4.88
2023-01-30T00:38:33.137Z,3.97
2023-01-30T00:41:19.205Z,5.40
2023-01-30T00:44:25.396Z,3.67
2023-01-30T00:47:12.478Z,4.45
2023-01-30T00:49:58.743Z,2.50
2023-01-30T00:52:44.992Z,4.65
2023-01-30T00:55:31.548Z,3.33
2023-01-30T00:58:17.555Z,1.88
2023-01-30T01:01:03.805Z,5.95
2023-01-30T01:03:50.133Z,2.13
2023-01-30T01:06:36.770Z,4.00
2023-01-30T01:09:23.502Z,3.60
2023-01-30T01:12:10.161Z,5.82
2023-01-30T01:14:56.366Z,4.93
2023-01-30T01:17:43.429Z,4.03
2023-01-30T01:20:29.998Z,2.83
2023-01-30T01:23:16.090Z,3.67
2023-01-30T01:26:02.935Z,4.00
2023-01-30T01:28:48.827Z,2.67
2023-01-30T01:31:35.158Z,1.85
2023-01-30T01:34:21.182Z,2.33
2023-01-30T01:37:07.234Z,2.70
2023-01-30T01:40:14.048Z,2.33
2023-01-30T01:43:00.576Z,2.20
2023-01-30T01:45:48.981Z,3.22
2023-01-30T01:48:35.241Z,2.55
2023-01-30T01:51:27.269Z,3.38
2023-01-30T01:54:36.813Z,3.25
2023-01-30T01:57:43.959Z,2.35
2023-01-30T02:00:31.700Z,2.00
2023-01-30T02:03:21.279Z,1.92
2023-01-30T02:06:08.449Z,3.70
2023-01-30T02:08:59.169Z,4.07
2023-01-30T02:11:49.464Z,2.03
2023-01-30T02:14:36.193Z,3.15
2023-01-30T02:17:24.169Z,4.00
2023-01-30T02:20:10.492Z,4.75
2023-01-30T02:23:15.124Z,2.67
2023-01-30T02:26:16.773Z,2.88
2023-01-30T02:29:25.984Z,3.83
2023-01-30T02:32:17.819Z,3.33
2023-01-30T02:35:05.675Z,3.72
2023-01-30T02:38:01.375Z,1.88
2023-01-30T02:40:53.690Z,3.17
2023-01-30T02:43:45.416Z,2.85
2023-01-30T02:46:54.670Z,3.42
2023-01-30T02:49:43.185Z,3.22
2023-01-30T02:52:30.305Z,4.05
2023-01-30T02:55:24.206Z,2.58
2023-01-30T02:58:11.713Z,2.97
2023-01-30T03:01:16.642Z,2.22
2023-01-30T03:04:27.673Z,2.17
2023-01-30T03:07:18.758Z,1.60
2023-01-30T03:10:18.016Z,1.08
2023-01-30T03:13:16.389Z,1.15
2023-01-30T03:16:05.988Z,2.03
2023-01-30T03:18:52.487Z,3.17
2023-01-30T03:21:45.734Z,1.05
2023-01-30T03:24:32.093Z,1.67
2023-01-30T03:27:18.616Z,2.35
2023-01-30T03:30:07.386Z,1.85
2023-01-30T03:32:54.866Z,2.47
2023-01-30T03:35:43.313Z,1.58
2023-01-30T03:38:32.997Z,2.97
2023-01-30T03:41:19.232Z,2.63
2023-01-30T03:44:05.561Z,1.63
2023-01-30T03:46:51.788Z,4.90
2023-01-30T03:49:39.082Z,2.03
2023-01-30T03:52:25.354Z,2.30
2023-01-30T03:55:12.120Z,3.40
2023-01-30T03:57:59.854Z,2.28
2023-01-30T04:00:49.543Z,1.20
2023-01-30T04:03:35.951Z,1.25
2023-01-30T04:06:24.447Z,1.80
2023-01-30T04:09:11.656Z,1.60
2023-01-30T04:14:55.650Z,3.83
2023-01-30T04:18:11.291Z,1.75
2023-01-30T04:21:13.688Z,2.38
2023-01-30T04:24:00.616Z,2.08
2023-01-30T04:26:47.548Z,2.13
2023-01-30T04:29:34.240Z,1.88
2023-01-30T04:32:23.425Z,3.10
2023-01-30T04:35:09.805Z,2.85
2023-01-30T04:37:55.983Z,2.33
2023-01-30T04:40:42.085Z,2.63
2023-01-30T04:43:29.951Z,4.32
2023-01-30T04:46:34.952Z,2.35
2023-01-30T04:49:21.579Z,2.10
2023-01-30T04:52:09.119Z,2.63
2023-01-30T04:54:56.323Z,2.78
2023-01-30T04:57:43.031Z,3.03
2023-01-30T05:00:29.187Z,3.05
2023-01-30T05:03:19.356Z,3.92
2023-01-30T05:06:05.893Z,2.78
2023-01-30T05:08:52.697Z,2.20
2023-01-30T05:11:39.207Z,1.77
2023-01-30T05:14:25.539Z,2.50
2023-01-30T05:17:12.006Z,3.00
2023-01-30T05:19:58.433Z,2.58
2023-01-30T05:22:44.570Z,3.17
2023-01-30T05:25:30.672Z,3.13
2023-01-30T05:28:16.706Z,4.57
2023-01-30T05:31:07.639Z,4.35
2023-01-30T05:33:54.357Z,4.28
2023-01-30T05:36:40.672Z,4.55
2023-01-30T05:39:26.965Z,6.28
2023-01-30T05:42:13.213Z,3.42
2023-01-30T05:44:59.931Z,2.25
2023-01-30T05:47:46.040Z,3.30
2023-01-30T05:50:32.320Z,2.10
2023-01-30T05:53:18.912Z,2.70
2023-01-30T05:56:06.145Z,2.40
2023-01-30T05:58:53.672Z,1.60
2023-01-30T06:01:40.120Z,1.88
2023-01-30T06:04:27.083Z,2.40
2023-01-30T06:07:15.006Z,3.05
2023-01-30T06:10:01.481Z,2.25
2023-01-30T06:12:47.684Z,2.33
2023-01-30T06:15:33.910Z,2.33
2023-01-30T06:18:20.616Z,2.08
2023-01-30T06:21:07.323Z,2.63
2023-01-30T06:23:53.524Z,2.13
2023-01-30T06:26:39.513Z,1.90
2023-01-30T06:29:25.744Z,2.10
2023-01-30T06:32:11.998Z,1.65
2023-01-30T06:34:58.095Z,1.88
2023-01-30T06:37:45.571Z,2.20
2023-01-30T06:40:31.696Z,3.70
2023-01-30T06:43:18.177Z,2.70
2023-01-30T06:46:04.600Z,2.90
2023-01-30T06:48:50.651Z,1.90
2023-01-30T06:51:36.693Z,2.75
2023-01-30T06:54:22.789Z,2.15
2023-01-30T06:57:09.016Z,3.60
2023-01-30T06:59:55.286Z,3.17
2023-01-30T07:02:41.761Z,3.53
2023-01-30T07:05:29.062Z,2.67
2023-01-30T07:08:16.153Z,2.53
2023-01-30T07:11:02.537Z,2.67
2023-01-30T07:13:48.559Z,4.75
2023-01-30T07:16:34.758Z,4.03
2023-01-30T07:19:20.816Z,2.20
2023-01-30T07:22:06.970Z,1.60
2023-01-30T07:24:53.101Z,1.58
2023-01-30T07:27:39.216Z,2.35
2023-01-30T07:30:26.242Z,1.60
2023-01-30T07:33:12.823Z,1.88
2023-01-30T07:35:58.948Z,1.50
2023-01-30T07:38:45.123Z,1.77
2023-01-30T07:41:31.287Z,2.78
2023-01-30T07:44:17.619Z,0.90
2023-01-30T07:47:03.727Z,2.00
2023-01-30T07:49:49.896Z,1.92
2023-01-30T07:52:35.861Z,2.40
2023-01-30T07:55:22.159Z,1.58
2023-01-30T07:58:08.836Z,1.33
2023-01-30T08:00:57.295Z,2.22
2023-01-30T08:03:45.984Z,1.23
2023-01-30T08:06:32.394Z,2.67
2023-01-30T08:09:19.203Z,2.03
2023-01-30T08:12:05.400Z,1.77
2023-01-30T08:14:51.926Z,2.05
2023-01-30T08:17:39.212Z,1.83
2023-01-30T08:20:26.513Z,1.55
2023-01-30T08:23:13.055Z,2.33
2023-01-30T08:26:00.619Z,2.90
2023-01-30T08:28:47.137Z,1.65
2023-01-30T08:31:33.092Z,1.45
2023-01-30T08:34:19.692Z,1.52
2023-01-30T08:37:05.727Z,3.00
2023-01-30T08:39:52.212Z,2.55
2023-01-30T08:42:37.987Z,1.33
2023-01-30T08:45:24.080Z,1.58
2023-01-30T08:48:10.687Z,1.63
2023-01-30T08:50:57.615Z,1.10
2023-01-30T08:53:43.762Z,1.75
2023-01-30T08:56:30.112Z,1.50
2023-01-30T08:59:16.253Z,1.60
2023-01-30T09:02:02.574Z,1.55
2023-01-30T09:04:48.617Z,1.45
2023-01-30T09:07:35.359Z,2.50
2023-01-30T09:10:22.897Z,1.48
2023-01-30T09:13:10.489Z,1.58
2023-01-30T09:15:56.548Z,2.83
2023-01-30T09:18:43.806Z,1.38
2023-01-30T09:21:32.076Z,2.08
2023-01-30T09:24:19.070Z,1.60
2023-01-30T09:27:05.489Z,1.20
2023-01-30T09:29:51.675Z,1.65
2023-01-30T09:32:37.847Z,2.13
2023-01-30T09:35:24.305Z,1.77
2023-01-30T09:38:10.543Z,1.50
2023-01-30T09:40:59.606Z,1.83
2023-01-30T09:43:54.852Z,1.70
2023-01-30T09:47:03.029Z,1.90
2023-01-30T09:50:08.088Z,1.77
2023-01-30T09:52:54.370Z,1.67
2023-01-30T09:55:42.172Z,1.45
2023-01-30T09:58:34.166Z,3.80
2023-01-30T10:01:31.409Z,1.15
2023-01-30T10:05:00.618Z,1.23
2023-01-30T10:08:08.040Z,2.15
2023-01-30T10:11:10.856Z,4.03
2023-01-30T10:14:06.335Z,1.92
2023-01-30T10:16:55.418Z,4.00
2023-01-30T10:19:50.723Z,3.78
2023-01-30T10:22:37.332Z,7.18
2023-01-30T10:25:23.946Z,4.88
2023-01-30T10:28:19.306Z,3.85
2023-01-30T10:31:07.851Z,3.78
2023-01-30T10:34:03.285Z,6.90
2023-01-30T10:36:49.652Z,9.10
2023-01-30T10:39:49.608Z,5.20
2023-01-30T10:42:44.310Z,7.43
2023-01-30T10:45:36.677Z,5.68
2023-01-30T10:48:28.715Z,5.72
2023-01-30T10:51:23.443Z,8.27
2023-01-30T10:54:19.858Z,11.27
2023-01-30T10:57:15.628Z,9.10
2023-01-30T11:00:05.088Z,8.68
2023-01-30T11:02:54.553Z,7.50
2023-01-30T11:05:46.705Z,9.15
2023-01-30T11:08:34.267Z,8.90
2023-01-30T11:11:31.488Z,6.80
2023-01-30T11:14:18.250Z,8.50
2023-01-30T11:17:04.491Z,9.60
2023-01-30T11:19:58.009Z,5.75
2023-01-30T11:22:48.823Z,10.13
2023-01-30T11:25:49.190Z,10.88
2023-01-30T11:28:48.480Z,10.80
2023-01-30T11:31:41.372Z,8.07
2023-01-30T11:34:28.120Z,10.07
2023-01-30T11:37:14.545Z,12.02
2023-01-30T11:40:01.113Z,11.45
2023-01-30T11:42:48.512Z,6.55
2023-01-30T11:45:36.961Z,5.93
2023-01-30T11:48:33.553Z,9.95
2023-01-30T11:51:35.401Z,8.52
2023-01-30T11:54:24.573Z,10.95
2023-01-30T11:57:18.579Z,11.23
2023-01-30T12:00:05.044Z,8.63
2023-01-30T12:02:57.869Z,12.57
2023-01-30T12:05:45.907Z,13.93
2023-01-30T12:08:42.834Z,11.55
2023-01-30T12:11:35.297Z,12.23
2023-01-30T12:14:25.538Z,14.57
2023-01-30T12:17:28.601Z,12.02
2023-01-30T12:20:21.106Z,20.10
2023-01-30T12:23:07.343Z,15.32
2023-01-30T12:26:00.078Z,12.32
2023-01-30T12:28:53.362Z,15.90
2023-01-30T12:32:02.647Z,11.25
2023-01-30T12:34:50.914Z,19.45
2023-01-30T12:37:56.939Z,15.07
2023-01-30T12:41:02.303Z,13.93
2023-01-30T12:43:54.727Z,15.48
2023-01-30T12:47:01.947Z,13.00
2023-01-30T12:50:03.689Z,12.25
2023-01-30T12:53:08.789Z,15.70
2023-01-30T12:55:55.027Z,18.17
2023-01-30T12:58:55.561Z,16.02
2023-01-30T13:01:54.067Z,17.65
2023-01-30T13:05:04.584Z,17.70
2023-01-30T13:08:11.067Z,15.60
2023-01-30T13:11:15.865Z,14.35
2023-01-30T13:14:22.761Z,20.38
2023-01-30T13:17:29.199Z,18.63
2023-01-30T13:20:34.555Z,20.92
2023-01-30T13:23:41.574Z,15.40
2023-01-30T13:26:35.007Z,10.43
2023-01-30T13:32:15.710Z,16.88
2023-01-30T13:35:03.098Z,17.17
2023-01-30T13:37:50.595Z,14.95
2023-01-30T13:40:39.316Z,18.45
2023-01-30T13:43:37.120Z,14.93
2023-01-30T13:46:28.280Z,16.17
2023-01-30T13:49:31.495Z,17.42
2023-01-30T13:52:23.857Z,20.55
2023-01-30T13:55:30.228Z,22.55
2023-01-30T13:58:17.870Z,20.85
2023-01-30T14:01:03.911Z,24.67
2023-01-30T14:03:50.873Z,18.73
2023-01-30T14:06:38.153Z,17.85
2023-01-30T14:09:27.470Z,18.88
2023-01-30T14:12:26.903Z,15.38
2023-01-30T14:15:16.719Z,16.17
2023-01-30T14:18:23.687Z,15.13
2023-01-30T14:21:21.444Z,19.35
2023-01-30T14:24:07.976Z,17.00
2023-01-30T14:27:01.377Z,16.60
2023-01-30T14:29:49.535Z,15.95
2023-01-30T14:32:51.521Z,18.27
2023-01-30T14:35:37.839Z,18.08
2023-01-30T14:38:24.111Z,21.70
2023-01-30T14:41:33.404Z,17.75
2023-01-30T14:44:38.652Z,21.52
2023-01-30T14:47:36.958Z,14.77
2023-01-30T14:50:55.067Z,23.00
2023-01-30T14:53:52.425Z,13.98
2023-01-30T14:56:45.004Z,18.67
2023-01-30T14:59:34.356Z,22.20
2023-01-30T15:02:24.280Z,16.48
2023-01-30T15:05:11.898Z,23.42
2023-01-30T15:08:03.263Z,23.83
2023-01-30T15:10:58.096Z,18.77
2023-01-30T15:13:48.217Z,24.92
2023-01-30T15:16:40.828Z,26.25
2023-01-30T15:19:50.347Z,18.40
2023-01-30T15:22:38.891Z,18.98
2023-01-30T15:25:36.258Z,24.60
2023-01-30T15:28:45.760Z,16.10
2023-01-30T15:31:32.300Z,16.95
2023-01-30T15:34:23.807Z,21.13
2023-01-30T15:37:29.954Z,18.50
2023-01-30T15:40:26.118Z,18.85
2023-01-30T15:46:03.967Z,14.80
2023-01-30T15:49:10.246Z,19.15
2023-01-30T15:52:00.723Z,18.42
2023-01-30T15:54:52.370Z,22.75
2023-01-30T15:57:40.665Z,15.90
2023-01-30T16:00:31.279Z,18.02
2023-01-30T16:03:29.066Z,19.13
2023-01-30T16:06:25.236Z,24.27
2023-01-30T16:09:21.930Z,16.10
2023-01-30T16:12:24.084Z,18.45
2023-01-30T16:15:19.724Z,22.40
2023-01-30T16:18:52.223Z,14.27
2023-01-30T16:21:42.586Z,23.67
2023-01-30T16:24:32.127Z,21.13
2023-01-30T16:27:26.343Z,19.10
2023-01-30T16:30:12.835Z,16.73
2023-01-30T16:32:59.293Z,17.92
2023-01-30T16:35:48.299Z,13.43
2023-01-30T16:38:45.082Z,16.60
2023-01-30T16:41:33.336Z,13.25
2023-01-30T16:44:22.415Z,18.77
2023-01-30T16:47:22.576Z,15.93
2023-01-30T16:50:22.504Z,15.73
2023-01-30T16:53:13.806Z,12.57
2023-01-30T16:56:00.135Z,14.65
2023-01-30T16:58:48.018Z,9.88
2023-01-30T17:01:40.003Z,21.02
2023-01-30T17:04:29.330Z,15.35
2023-01-30T17:07:33.627Z,23.90
2023-01-30T17:10:29.321Z,18.23
2023-01-30T17:13:35.410Z,15.77
2023-01-30T17:16:21.541Z,13.00
2023-01-30T17:19:08.106Z,17.15
2023-01-30T17:21:54.857Z,17.40
2023-01-30T17:24:41.091Z,12.50
2023-01-30T17:27:28.625Z,18.15
2023-01-30T17:30:19.343Z,8.30
2023-01-30T17:33:05.808Z,15.43
2023-01-30T17:35:54.195Z,13.90
2023-01-30T17:38:40.500Z,18.15
2023-01-30T17:41:32.594Z,9.32
2023-01-30T17:44:19.106Z,13.57
2023-01-30T17:47:11.781Z,17.42
2023-01-30T17:50:00.755Z,12.75
2023-01-30T17:52:47.860Z,18.48
2023-01-30T17:55:34.920Z,17.35
2023-01-30T17:58:21.624Z,14.07
2023-01-30T18:01:12.007Z,15.50
2023-01-30T18:03:58.494Z,18.13
2023-01-30T18:06:46.778Z,9.90
2023-01-30T18:09:33.210Z,16.02
2023-01-30T18:12:19.793Z,14.82
2023-01-30T18:15:06.313Z,11.80
2023-01-30T18:17:56.504Z,17.10
2023-01-30T18:20:42.665Z,14.60
2023-01-30T18:23:28.888Z,12.40
2023-01-30T18:26:15.767Z,16.20
2023-01-30T18:29:01.765Z,8.85
2023-01-30T18:31:48.069Z,10.30
2023-01-30T18:34:35.436Z,11.85
2023-01-30T18:37:21.383Z,11.93
2023-01-30T18:40:09.564Z,17.50
2023-01-30T18:42:56.157Z,13.68
2023-01-30T18:45:42.453Z,14.82
2023-01-30T18:48:29.384Z,15.93
2023-01-30T18:51:19.858Z,10.73
2023-01-30T18:54:05.791Z,13.50
2023-01-30T18:56:52.604Z,15.60
2023-01-30T18:59:41.185Z,14.88
2023-01-30T19:02:27.957Z,12.57
2023-01-30T19:05:14.149Z,13.18
2023-01-30T19:08:00.421Z,14.50
2023-01-30T19:10:47.031Z,16.52
2023-01-30T19:13:33.205Z,14.20
2023-01-30T19:16:20.048Z,20.63
2023-01-30T19:19:07.263Z,10.30
2023-01-30T19:21:54.397Z,14.23
2023-01-30T19:24:40.852Z,12.98
2023-01-30T19:27:27.157Z,10.43
2023-01-30T19:30:13.483Z,13.55
2023-01-30T19:32:59.870Z,12.45
2023-01-30T19:35:46.412Z,12.45
2023-01-30T19:38:36.185Z,13.70
2023-01-30T19:41:30.585Z,13.80
2023-01-30T19:44:16.578Z,14.30
2023-01-30T19:47:06.785Z,13.20
2023-01-30T19:49:53.968Z,17.92
2023-01-30T19:52:41.041Z,8.38
2023-01-30T19:55:27.748Z,10.52
2023-01-30T19:58:13.857Z,12.63
2023-01-30T20:01:08.025Z,19.27
2023-01-30T20:03:54.808Z,14.77
2023-01-30T20:06:44.990Z,11.75
2023-01-30T20:09:31.221Z,12.27
2023-01-30T20:12:17.591Z,16.42
2023-01-30T20:15:05.042Z,10.73
2023-01-30T20:17:51.481Z,9.35
2023-01-30T20:20:37.684Z,13.93
2023-01-30T20:23:23.815Z,12.27
2023-01-30T20:26:11.417Z,14.15
2023-01-30T20:28:58.207Z,10.88
2023-01-30T20:31:44.434Z,11.13
2023-01-30T20:34:30.717Z,17.02
2023-01-30T20:37:23.915Z,14.93
2023-01-30T20:40:11.033Z,16.50
2023-01-30T20:42:58.815Z,16.02
2023-01-30T20:45:45.829Z,20.48
2023-01-30T20:48:32.498Z,19.08
2023-01-30T20:51:26.330Z,17.80
2023-01-30T20:54:14.217Z,23.77
2023-01-30T20:57:02.679Z,12.93
2023-01-30T20:59:49.080Z,28.27
2023-01-30T21:02:35.299Z,20.70
2023-01-30T21:05:22.221Z,21.77
2023-01-30T21:08:08.316Z,23.83
2023-01-30T21:10:54.990Z,25.45
2023-01-30T21:13:41.804Z,17.23
2023-01-30T21:16:29.771Z,15.18
2023-01-30T21:19:17.427Z,21.00
2023-01-30T21:22:09.513Z,9.65
2023-01-30T21:24:55.846Z,15.50
2023-01-30T21:27:42.002Z,14.38
2023-01-30T21:30:28.067Z,13.48
2023-01-30T21:33:14.583Z,14.00
2023-01-30T21:36:00.961Z,10.60
2023-01-30T21:39:05.902Z,9.20
2023-01-30T21:42:15.386Z,9.95
2023-01-30T21:45:02.573Z,11.45
2023-01-30T21:47:54.202Z,11.43
2023-01-30T21:50:41.400Z,8.95
2023-01-30T21:53:27.532Z,8.52
2023-01-30T21:56:13.671Z,11.07
2023-01-30T21:59:00.968Z,6.22
2023-01-30T22:01:47.029Z,5.55
2023-01-30T22:04:36.559Z,5.85
2023-01-30T22:07:22.913Z,7.22
2023-01-30T22:10:09.297Z,8.20
2023-01-30T22:12:55.652Z,3.63
2023-01-30T22:15:41.695Z,3.67
2023-01-30T22:18:27.651Z,4.72
2023-01-30T22:21:17.618Z,6.28
2023-01-30T22:24:05.635Z,4.68
2023-01-30T22:26:52.211Z,1.60
2023-01-30T22:29:38.615Z,4.28
2023-01-30T22:32:25.324Z,1.42
2023-01-30T22:35:11.746Z,2.53
2023-01-30T22:37:58.047Z,4.75
2023-01-30T22:40:44.300Z,2.47
2023-01-30T22:43:30.802Z,2.33
2023-01-30T22:46:17.909Z,2.97
2023-01-30T22:49:05.087Z,1.33
2023-01-30T22:51:51.310Z,1.95
2023-01-30T22:54:37.295Z,1.50
2023-01-30T22:57:23.618Z,0.80
2023-01-30T23:00:10.588Z,0.77
2023-01-30T23:02:57.098Z,3.67
2023-01-30T23:05:43.354Z,0.32
2023-01-30T23:08:36.888Z,1.13
2023-01-30T23:11:23.506Z,1.58
2023-01-30T23:14:11.008Z,1.83
2023-01-30T23:16:57.167Z,0.43
2023-01-30T23:19:43.288Z,2.05
2023-01-30T23:22:29.241Z,0.50
2023-01-30T23:25:15.406Z,1.85
2023-01-30T23:28:01.455Z,0.60
2023-01-30T23:30:47.582Z,0.77
2023-01-30T23:33:33.628Z,1.52
2023-01-30T23:36:19.649Z,2.90
2023-01-30T23:39:05.727Z,0.98
2023-01-30T23:41:52.445Z,1.05
2023-01-30T23:44:38.841Z,2.63
2023-01-30T23:47:25.015Z,0.47
2023-01-30T23:50:11.607Z,2.88
2023-01-30T23:52:57.992Z,1.58
2023-01-30T23:55:53.790Z,2.38
2023-01-30T23:58:40.268Z,2.25
